Time;durP1;ratioP1;P1;durP2;ratioP2;P2;SDS_P1;SDS_P2;PMS_P1;PMS_P2;Temp;Humidity;BMP_temperature;BMP_pressure;BME280_temperature;BME280_humidity;BME280_pressure;Samples;Min_cycle;Max_cycle;Signal;HPM_P1;HPM_P2
2024/02/17 00:00:53;;;;;;;10.75;5.50;;;11.90;82.00;;;;;;4993098;28;20048;-74
2024/02/17 00:03:22;;;;;;;7.10;5.03;;;11.90;82.00;;;;;;4992881;28;20507;-74
2024/02/17 00:05:51;;;;;;;8.88;5.85;;;11.90;82.00;;;;;;4992849;28;20077;-74
2024/02/17 00:08:17;;;;;;;10.43;5.60;;;11.90;82.10;;;;;;4992951;28;20066;-75
2024/02/17 00:10:43;;;;;;;9.68;5.47;;;11.80;82.10;;;;;;4993271;28;20030;-73
2024/02/17 00:13:08;;;;;;;9.00;5.45;;;11.90;82.40;;;;;;4996412;28;20037;-74
2024/02/17 00:15:34;;;;;;;6.43;5.15;;;11.80;82.30;;;;;;4996482;28;20042;-73
2024/02/17 00:18:02;;;;;;;8.73;5.32;;;11.80;82.40;;;;;;4996614;28;20110;-74
2024/02/17 00:20:27;;;;;;;6.70;5.32;;;11.80;82.50;;;;;;4996651;28;20026;-74
2024/02/17 00:22:53;;;;;;;8.13;4.60;;;11.90;82.70;;;;;;4978968;28;20034;-74
2024/02/17 00:25:19;;;;;;;7.35;4.40;;;11.90;82.70;;;;;;4996519;28;20022;-74
2024/02/17 00:27:44;;;;;;;7.18;4.15;;;11.90;82.70;;;;;;4996460;28;20023;-75
2024/02/17 00:30:10;;;;;;;6.20;3.90;;;11.90;82.70;;;;;;4996639;28;20027;-74
2024/02/17 00:32:36;;;;;;;5.15;3.53;;;11.90;82.70;;;;;;4996531;28;20069;-74
2024/02/17 00:35:01;;;;;;;6.18;3.75;;;11.90;82.60;;;;;;4978903;28;20058;-74
2024/02/17 00:37:27;;;;;;;7.15;3.83;;;11.90;82.40;;;;;;4996476;28;20133;-72
2024/02/17 00:39:53;;;;;;;6.20;3.47;;;11.90;82.60;;;;;;4996237;28;20022;-75
2024/02/17 00:42:19;;;;;;;5.00;3.40;;;11.80;82.50;;;;;;4996244;28;20364;-72
2024/02/17 00:44:44;;;;;;;7.03;3.40;;;11.80;82.60;;;;;;4996083;28;20479;-73
2024/02/17 00:47:10;;;;;;;5.65;3.67;;;11.80;83.40;;;;;;4996160;28;20044;-72
2024/02/17 00:49:35;;;;;;;6.68;4.38;;;11.80;82.70;;;;;;4996078;28;20026;-76
2024/02/17 00:52:01;;;;;;;7.20;4.90;;;11.80;82.70;;;;;;4996103;28;20030;-73
2024/02/17 00:54:26;;;;;;;4.80;4.13;;;11.70;82.80;;;;;;4995986;28;20030;-73
2024/02/17 00:56:52;;;;;;;6.60;4.35;;;11.70;82.90;;;;;;4995933;28;20468;-73
2024/02/17 00:59:17;;;;;;;4.72;3.92;;;11.70;82.90;;;;;;4995925;28;20045;-73
2024/02/17 01:01:43;;;;;;;6.88;3.95;;;11.70;82.90;;;;;;4995825;28;20037;-72
2024/02/17 01:04:09;;;;;;;6.57;3.80;;;11.80;82.90;;;;;;4995596;28;20530;-73
2024/02/17 01:06:34;;;;;;;6.38;3.67;;;11.70;82.90;;;;;;4995671;28;20026;-73
2024/02/17 01:09:00;;;;;;;8.23;4.40;;;11.80;82.80;;;;;;4995488;28;20075;-73
2024/02/17 01:11:25;;;;;;;9.15;4.85;;;11.70;82.80;;;;;;4995471;28;20475;-73
2024/02/17 01:13:51;;;;;;;5.45;4.03;;;11.70;83.00;;;;;;4977798;28;20081;-73
2024/02/17 01:16:16;;;;;;;7.28;3.92;;;11.70;83.10;;;;;;4995250;28;20057;-74
2024/02/17 01:18:42;;;;;;;5.82;3.85;;;11.70;83.20;;;;;;4995336;28;20029;-72
2024/02/17 01:21:07;;;;;;;4.28;3.70;;;11.70;83.20;;;;;;4995291;28;20030;-73
2024/02/17 01:23:33;;;;;;;4.72;3.65;;;11.70;83.20;;;;;;4994425;28;20034;-72
2024/02/17 01:25:59;;;;;;;4.95;3.58;;;11.80;83.10;;;;;;4995474;28;20030;-75
2024/02/17 01:28:24;;;;;;;5.78;3.88;;;11.80;83.00;;;;;;4995352;28;20113;-75
2024/02/17 01:30:50;;;;;;;8.55;4.05;;;11.80;83.10;;;;;;4977889;28;20054;-76
2024/02/17 01:33:15;;;;;;;5.60;3.70;;;11.80;83.10;;;;;;4995303;28;20535;-77
2024/02/17 01:35:41;;;;;;;4.13;3.60;;;11.80;83.10;;;;;;4995195;28;20479;-76
2024/02/17 01:38:08;;;;;;;5.10;3.17;;;11.80;82.90;;;;;;4995206;28;20113;-76
2024/02/17 01:40:34;;;;;;;5.15;3.47;;;11.80;82.90;;;;;;4995139;28;20014;-78
2024/02/17 01:43:00;;;;;;;4.80;3.13;;;11.80;82.90;;;;;;4995004;28;20030;-77
2024/02/17 01:45:26;;;;;;;4.07;3.00;;;11.80;83.00;;;;;;4995160;28;20027;-74
2024/02/17 01:47:54;;;;;;;3.67;2.90;;;11.80;83.00;;;;;;4994967;28;20129;-74
2024/02/17 01:50:20;;;;;;;3.80;2.60;;;11.80;83.00;;;;;;4995041;28;20038;-74
2024/02/17 01:52:46;;;;;;;3.55;2.67;;;11.80;83.10;;;;;;4994921;28;20104;-75
2024/02/17 01:55:13;;;;;;;2.47;1.95;;;11.80;83.00;;;;;;4994900;28;20027;-75
2024/02/17 01:57:39;;;;;;;5.47;2.75;;;11.80;83.00;;;;;;4994869;28;20030;-76
2024/02/17 02:00:07;;;;;;;2.67;2.30;;;11.80;82.90;;;;;;4994764;28;20023;-75
2024/02/17 02:02:33;;;;;;;2.38;1.90;;;11.80;82.90;;;;;;4994691;28;20023;-73
2024/02/17 02:04:58;;;;;;;4.10;2.30;;;11.80;82.70;;;;;;4994664;28;20105;-76
2024/02/17 02:07:24;;;;;;;3.20;1.98;;;11.90;82.90;;;;;;4994536;28;20023;-75
2024/02/17 02:09:49;;;;;;;5.10;2.20;;;11.90;82.70;;;;;;4994597;28;20057;-75
2024/02/17 02:12:15;;;;;;;3.53;1.90;;;11.90;82.70;;;;;;4994567;28;20106;-76
2024/02/17 02:14:40;;;;;;;3.63;2.38;;;11.90;82.70;;;;;;4994518;28;20026;-75
2024/02/17 02:17:06;;;;;;;2.95;2.20;;;11.90;82.70;;;;;;4994407;28;20376;-75
2024/02/17 02:19:31;;;;;;;5.57;2.50;;;11.90;82.70;;;;;;4976981;28;20121;-75
2024/02/17 02:21:57;;;;;;;3.08;2.17;;;11.90;82.70;;;;;;4994375;28;20451;-74
2024/02/17 02:24:22;;;;;;;3.15;1.92;;;11.90;82.70;;;;;;4994208;28;20080;-75
2024/02/17 02:26:48;;;;;;;4.25;1.88;;;11.90;82.60;;;;;;4994362;28;20050;-77
2024/02/17 02:29:14;;;;;;;2.90;2.25;;;11.90;82.70;;;;;;4994237;28;20109;-77
2024/02/17 02:31:40;;;;;;;3.78;2.17;;;12.00;82.70;;;;;;4994287;28;20022;-77
2024/02/17 02:34:05;;;;;;;4.05;2.15;;;12.00;82.70;;;;;;4994043;28;20030;-77
2024/02/17 02:36:31;;;;;;;3.15;2.08;;;12.00;82.80;;;;;;4994124;28;20034;-76
2024/02/17 02:38:56;;;;;;;2.67;2.28;;;12.00;82.70;;;;;;4994420;28;20018;-76
2024/02/17 02:41:22;;;;;;;2.33;1.92;;;11.90;82.90;;;;;;4976564;28;20041;-76
2024/02/17 02:43:48;;;;;;;3.28;2.50;;;11.90;83.20;;;;;;4994205;28;20034;-73
2024/02/17 02:46:14;;;;;;;6.40;2.47;;;11.90;83.30;;;;;;4994142;28;20374;-75
2024/02/17 02:48:39;;;;;;;3.60;2.33;;;11.90;83.40;;;;;;4994049;28;20026;-75
2024/02/17 02:51:05;;;;;;;3.88;2.20;;;11.90;83.60;;;;;;4993917;28;20483;-76
2024/02/17 02:53:30;;;;;;;3.10;2.20;;;11.80;83.70;;;;;;4993636;28;20026;-74
2024/02/17 02:55:56;;;;;;;2.88;2.38;;;11.80;84.00;;;;;;4993775;28;20439;-75
2024/02/17 02:58:22;;;;;;;4.10;2.42;;;11.80;83.90;;;;;;4993665;28;20030;-76
2024/02/17 03:00:47;;;;;;;3.65;2.30;;;11.80;84.00;;;;;;4993645;28;20478;-73
2024/02/17 03:03:13;;;;;;;4.45;2.63;;;11.80;84.20;;;;;;4993694;28;20030;-76
2024/02/17 03:05:39;;;;;;;2.90;2.60;;;11.80;84.10;;;;;;4993650;28;20388;-76
2024/02/17 03:08:05;;;;;;;3.63;2.50;;;11.80;85.00;;;;;;4993642;28;20046;-75
2024/02/17 03:10:31;;;;;;;3.45;2.08;;;11.80;84.50;;;;;;4993327;28;20038;-74
2024/02/17 03:12:57;;;;;;;3.10;2.60;;;11.80;84.60;;;;;;4992901;28;20045;-76
2024/02/17 03:15:22;;;;;;;3.30;2.40;;;11.80;84.70;;;;;;4993409;28;20411;-75
2024/02/17 03:17:52;;;;;;;5.50;2.58;;;11.70;84.80;;;;;;4993457;28;20034;-73
2024/02/17 03:20:18;;;;;;;9.38;2.20;;;11.70;84.90;;;;;;4993436;28;20022;-73
2024/02/17 03:22:44;;;;;;;3.85;2.72;;;11.70;85.10;;;;;;4993337;28;20034;-76
2024/02/17 03:25:10;;;;;;;4.32;2.75;;;11.70;85.20;;;;;;4993484;28;20435;-76
2024/02/17 03:27:35;;;;;;;3.08;2.42;;;11.70;85.40;;;;;;4975993;28;20018;-75
2024/02/17 03:30:05;;;;;;;2.97;2.58;;;11.70;85.50;;;;;;4993448;28;20034;-74
2024/02/17 03:32:31;;;;;;;4.30;2.80;;;11.70;85.80;;;;;;4993409;28;20082;-77
2024/02/17 03:34:56;;;;;;;4.07;2.33;;;11.70;85.80;;;;;;4993230;28;20081;-75
2024/02/17 03:37:22;;;;;;;4.05;2.20;;;11.70;85.80;;;;;;4993432;28;20030;-77
2024/02/17 03:39:48;;;;;;;3.85;2.78;;;11.70;85.90;;;;;;4975873;28;20019;-74
2024/02/17 03:42:13;;;;;;;4.50;2.67;;;11.70;86.00;;;;;;4993385;28;20320;-76
2024/02/17 03:44:39;;;;;;;4.95;2.78;;;11.60;85.80;;;;;;4993311;28;20125;-76
2024/02/17 03:47:05;;;;;;;2.95;2.63;;;11.60;86.10;;;;;;4978650;28;20105;-75
2024/02/17 03:49:31;;;;;;;4.43;2.80;;;11.60;86.30;;;;;;4997173;28;20513;-75
2024/02/17 03:51:56;;;;;;;3.65;2.13;;;11.50;86.30;;;;;;4997204;28;20030;-74
2024/02/17 03:54:22;;;;;;;3.03;2.22;;;11.60;86.50;;;;;;4997166;28;20105;-74
2024/02/17 03:56:47;;;;;;;3.33;2.40;;;11.50;86.70;;;;;;4997119;28;20146;-74
2024/02/17 03:59:13;;;;;;;4.35;2.17;;;11.50;86.80;;;;;;4997021;28;20467;-75
2024/02/17 04:01:39;;;;;;;3.80;2.50;;;11.60;86.90;;;;;;4996936;28;20034;-75
2024/02/17 04:04:04;;;;;;;4.22;2.22;;;11.60;87.60;;;;;;4996883;28;20038;-75
2024/02/17 04:06:30;;;;;;;3.17;2.50;;;11.60;86.80;;;;;;4979418;28;20026;-76
2024/02/17 04:08:57;;;;;;;2.65;2.20;;;11.60;86.80;;;;;;4996872;28;20072;-75
2024/02/17 04:11:23;;;;;;;3.97;2.30;;;11.60;86.80;;;;;;4996820;28;20022;-75
2024/02/17 04:13:49;;;;;;;4.57;2.00;;;11.60;86.80;;;;;;4996915;28;20022;-75
2024/02/17 04:16:14;;;;;;;2.70;2.40;;;11.60;86.90;;;;;;4996556;28;20046;-76
2024/02/17 04:18:40;;;;;;;4.07;2.20;;;11.60;87.00;;;;;;4979308;28;20031;-75
2024/02/17 04:21:05;;;;;;;4.38;2.53;;;11.60;86.90;;;;;;4996670;28;20143;-76
2024/02/17 04:23:31;;;;;;;2.90;2.40;;;11.50;87.20;;;;;;4996476;28;20031;-75
2024/02/17 04:25:59;;;;;;;3.85;2.75;;;11.50;87.20;;;;;;4996552;28;20101;-73
2024/02/17 04:28:25;;;;;;;3.95;2.80;;;11.50;87.30;;;;;;4996499;28;20471;-73
2024/02/17 04:30:51;;;;;;;2.72;2.42;;;11.50;87.30;;;;;;4996473;28;20038;-72
2024/02/17 04:33:16;;;;;;;2.47;2.20;;;11.50;87.30;;;;;;4996469;28;20106;-72
2024/02/17 04:35:42;;;;;;;3.17;2.25;;;11.50;87.30;;;;;;4996272;28;20031;-73
2024/02/17 04:38:07;;;;;;;3.22;2.00;;;11.50;87.50;;;;;;4996146;28;20026;-72
2024/02/17 04:40:33;;;;;;;4.15;2.40;;;11.50;87.40;;;;;;4996132;28;20061;-76
2024/02/17 04:42:58;;;;;;;2.33;1.95;;;11.50;87.20;;;;;;4995977;28;20062;-73
2024/02/17 04:45:25;;;;;;;2.75;2.03;;;11.50;87.20;;;;;;4996160;28;20045;-73
2024/02/17 04:47:51;;;;;;;2.90;1.60;;;11.60;87.30;;;;;;4995952;28;20023;-73
2024/02/17 04:50:16;;;;;;;2.13;1.65;;;11.50;87.20;;;;;;4995963;28;20109;-73
2024/02/17 04:52:42;;;;;;;2.15;1.58;;;11.50;87.30;;;;;;4978392;28;20432;-72
2024/02/17 04:55:08;;;;;;;2.03;1.80;;;11.50;87.50;;;;;;4995894;28;20124;-73
2024/02/17 04:57:34;;;;;;;2.00;1.80;;;11.50;87.60;;;;;;4994459;28;20391;-73
2024/02/17 05:00:00;;;;;;;1.60;1.50;;;11.40;87.70;;;;;;4995855;28;20030;-72
2024/02/17 05:02:25;;;;;;;1.50;1.23;;;11.30;86.90;;;;;;4995751;28;20027;-72
2024/02/17 05:04:51;;;;;;;2.00;1.80;;;11.20;85.60;;;;;;4995712;28;20046;-72
2024/02/17 05:07:16;;;;;;;2.75;1.70;;;10.90;84.80;;;;;;4995727;28;20034;-72
2024/02/17 05:09:42;;;;;;;2.40;2.10;;;10.70;84.90;;;;;;4995764;28;20040;-72
2024/02/17 05:12:08;;;;;;;3.10;2.67;;;10.60;85.00;;;;;;4995676;28;20026;-72
2024/02/17 05:14:36;;;;;;;3.63;2.85;;;10.40;85.90;;;;;;4995577;28;20030;-73
2024/02/17 05:17:05;;;;;;;4.18;3.30;;;10.30;86.30;;;;;;4995351;28;20113;-73
2024/02/17 05:19:32;;;;;;;4.10;3.70;;;10.00;86.90;;;;;;4995531;28;20134;-73
2024/02/17 05:21:58;;;;;;;4.45;3.63;;;9.90;87.70;;;;;;4995371;28;20054;-72
2024/02/17 05:24:24;;;;;;;4.53;3.92;;;9.80;87.50;;;;;;4995329;28;20035;-73
2024/02/17 05:26:50;;;;;;;5.07;4.00;;;9.80;87.80;;;;;;4995361;28;20387;-72
2024/02/17 05:29:16;;;;;;;6.25;4.30;;;9.60;88.40;;;;;;4995261;28;20049;-72
2024/02/17 05:31:41;;;;;;;5.95;4.50;;;9.60;88.70;;;;;;4995312;28;20027;-73
2024/02/17 05:34:07;;;;;;;6.28;3.88;;;9.60;88.80;;;;;;4995391;28;20035;-72
2024/02/17 05:36:32;;;;;;;7.00;4.78;;;9.60;88.70;;;;;;4995141;28;20026;-72
2024/02/17 05:38:58;;;;;;;7.18;5.10;;;9.60;88.60;;;;;;4977709;28;20479;-72
2024/02/17 05:41:24;;;;;;;5.28;4.78;;;9.60;88.80;;;;;;4995191;28;20438;-73
2024/02/17 05:43:50;;;;;;;4.93;4.43;;;9.60;88.80;;;;;;4995014;28;20039;-76
2024/02/17 05:46:16;;;;;;;5.70;4.18;;;9.60;88.80;;;;;;4995111;28;20029;-72
2024/02/17 05:48:44;;;;;;;7.18;4.20;;;9.60;88.50;;;;;;4995007;28;20022;-71
2024/02/17 05:51:10;;;;;;;7.03;4.40;;;9.70;88.50;;;;;;4994955;28;20027;-72
2024/02/17 05:53:36;;;;;;;6.43;4.47;;;9.60;88.20;;;;;;4994940;28;20026;-72
2024/02/17 05:56:01;;;;;;;6.07;4.70;;;9.60;88.00;;;;;;4977382;28;20023;-72
2024/02/17 05:58:27;;;;;;;6.53;5.45;;;9.60;88.40;;;;;;4994824;28;20035;-71
2024/02/17 06:00:55;;;;;;;5.18;4.60;;;9.60;88.40;;;;;;4994676;28;20030;-72
2024/02/17 06:03:21;;;;;;;6.63;5.05;;;9.60;88.50;;;;;;4994685;28;20027;-75
2024/02/17 06:05:46;;;;;;;5.93;5.32;;;9.60;88.30;;;;;;4994685;28;20158;-74
2024/02/17 06:08:12;;;;;;;9.05;4.53;;;9.50;88.40;;;;;;4994343;28;20054;-73
2024/02/17 06:10:37;;;;;;;5.38;4.80;;;9.40;88.50;;;;;;4977182;28;20494;-73
2024/02/17 06:13:05;;;;;;;5.00;4.43;;;9.40;88.70;;;;;;4994587;28;20165;-76
2024/02/17 06:15:30;;;;;;;4.28;3.50;;;9.30;89.10;;;;;;4994250;28;21019;-72
2024/02/17 06:23:25;;;;;;;5.65;3.53;;;9.40;88.20;;;;;;4994509;28;20068;-74
2024/02/17 06:25:50;;;;;;;5.68;4.20;;;9.50;88.30;;;;;;4994230;28;20069;-72
2024/02/17 06:28:16;;;;;;;7.25;4.57;;;9.60;88.00;;;;;;4994269;28;20110;-74
2024/02/17 06:30:41;;;;;;;5.13;4.00;;;9.60;87.60;;;;;;4976717;28;20045;-72
2024/02/17 06:33:07;;;;;;;4.50;4.10;;;9.60;87.50;;;;;;4994247;28;20022;-75
2024/02/17 06:35:32;;;;;;;5.78;4.40;;;9.60;87.20;;;;;;4994011;28;20035;-74
2024/02/17 06:37:58;;;;;;;4.38;3.80;;;9.60;87.40;;;;;;4994128;28;20392;-74
2024/02/17 06:40:23;;;;;;;6.90;4.13;;;9.60;87.20;;;;;;4994131;28;20049;-74
2024/02/17 06:42:49;;;;;;;4.43;3.35;;;9.70;87.20;;;;;;4993915;28;20097;-75
2024/02/17 06:45:16;;;;;;;4.57;4.07;;;9.70;87.10;;;;;;4994074;28;20035;-74
2024/02/17 06:47:43;;;;;;;4.60;3.50;;;9.80;87.00;;;;;;4993937;28;20409;-74
2024/02/17 06:50:10;;;;;;;8.35;5.40;;;9.80;86.70;;;;;;4993933;28;20376;-74
2024/02/17 06:52:36;;;;;;;9.35;6.70;;;9.90;86.50;;;;;;4993881;28;20042;-72
2024/02/17 06:55:02;;;;;;;6.50;5.07;;;9.90;86.30;;;;;;4993908;28;20026;-75
2024/02/17 06:57:27;;;;;;;5.90;5.28;;;9.90;86.10;;;;;;4993615;28;20027;-73
2024/02/17 06:59:54;;;;;;;6.90;5.78;;;10.00;86.10;;;;;;4993760;28;20105;-75
2024/02/17 07:02:22;;;;;;;7.20;5.85;;;10.00;85.70;;;;;;4993701;28;20026;-73
2024/02/17 07:04:49;;;;;;;7.47;5.28;;;9.90;85.90;;;;;;4993333;28;20353;-72
2024/02/17 07:07:14;;;;;;;7.97;5.47;;;9.80;86.40;;;;;;4993550;28;20027;-73
2024/02/17 07:09:40;;;;;;;7.30;4.30;;;9.70;86.30;;;;;;4966539;28;20101;-72
2024/02/17 07:12:06;;;;;;;7.13;4.75;;;9.50;86.70;;;;;;4974276;28;20369;-73
2024/02/17 07:14:32;;;;;;;6.53;4.93;;;9.50;87.00;;;;;;4974129;28;20077;-72
2024/02/17 07:16:57;;;;;;;8.20;5.68;;;9.50;87.40;;;;;;4973910;28;20047;-73
2024/02/17 07:19:23;;;;;;;6.85;5.80;;;9.50;87.20;;;;;;4974062;28;20102;-72
2024/02/17 07:21:49;;;;;;;6.57;5.10;;;9.40;87.30;;;;;;4972932;28;20062;-73
2024/02/17 07:24:15;;;;;;;6.43;5.28;;;9.40;87.50;;;;;;4973861;28;20146;-74
2024/02/17 07:26:44;;;;;;;6.13;4.90;;;9.40;87.40;;;;;;4973914;28;20097;-74
2024/02/17 07:29:11;;;;;;;6.00;4.57;;;9.50;88.30;;;;;;4972612;28;20031;-72
2024/02/17 07:31:43;;;;;;;4.53;4.05;;;9.50;87.00;;;;;;4956357;28;20111;-73
2024/02/17 07:34:11;;;;;;;6.22;5.10;;;9.60;87.10;;;;;;4973750;28;20539;-74
2024/02/17 07:36:37;;;;;;;6.55;5.57;;;9.70;87.20;;;;;;4973384;28;20026;-73
2024/02/17 07:39:03;;;;;;;7.47;5.10;;;9.80;87.00;;;;;;4973500;28;20424;-72
2024/02/17 07:41:28;;;;;;;6.95;5.70;;;9.90;87.10;;;;;;4973668;28;20102;-72
2024/02/17 07:43:54;;;;;;;7.88;5.43;;;10.00;86.90;;;;;;4973695;28;20130;-71
2024/02/17 07:46:20;;;;;;;7.68;5.10;;;10.10;86.60;;;;;;4973771;28;20030;-73
2024/02/17 07:48:46;;;;;;;8.45;5.22;;;10.20;86.40;;;;;;4973700;28;20031;-73
2024/02/17 07:51:12;;;;;;;8.85;5.35;;;10.20;86.10;;;;;;4973761;28;20030;-72
2024/02/17 07:53:38;;;;;;;6.47;5.47;;;10.30;85.90;;;;;;4956446;28;20023;-73
2024/02/17 07:56:04;;;;;;;6.95;5.78;;;10.30;85.80;;;;;;4973690;28;20023;-72
2024/02/17 07:58:30;;;;;;;5.93;4.90;;;10.30;85.50;;;;;;4973706;28;20496;-73
2024/02/17 08:00:56;;;;;;;7.93;6.40;;;10.40;85.30;;;;;;4973650;28;20034;-73
2024/02/17 08:03:21;;;;;;;6.63;5.55;;;10.40;85.10;;;;;;4973353;28;20041;-73
2024/02/17 08:05:48;;;;;;;5.85;5.25;;;10.50;85.90;;;;;;4973437;28;20484;-72
2024/02/17 08:08:14;;;;;;;9.98;7.05;;;10.50;85.00;;;;;;4972421;28;20031;-73
2024/02/17 08:10:40;;;;;;;8.52;7.07;;;10.50;84.90;;;;;;4973290;28;20476;-75
2024/02/17 08:13:05;;;;;;;8.20;6.38;;;10.50;85.70;;;;;;4973038;28;20030;-75
2024/02/17 08:15:31;;;;;;;12.70;6.57;;;10.60;84.80;;;;;;4973172;28;20047;-80
2024/02/17 08:17:58;;;;;;;12.43;6.03;;;10.70;86.70;;;;;;4973208;28;20114;-77
2024/02/17 08:20:25;;;;;;;8.13;5.82;;;11.20;86.20;;;;;;4956169;28;20122;-75
2024/02/17 08:22:50;;;;;;;7.75;5.60;;;11.50;83.70;;;;;;4955929;28;20027;-75
2024/02/17 08:25:16;;;;;;;7.30;4.82;;;11.70;81.90;;;;;;4956145;28;20027;-76
2024/02/17 08:27:43;;;;;;;6.53;5.72;;;12.00;80.30;;;;;;4946927;28;20031;-77
2024/02/17 08:30:10;;;;;;;8.30;6.88;;;12.40;78.20;;;;;;4936945;29;20087;-75
2024/02/17 08:32:35;;;;;;;10.15;9.07;;;12.50;77.20;;;;;;4937862;29;20465;-76
2024/02/17 08:35:02;;;;;;;9.30;8.38;;;12.40;77.00;;;;;;4940132;29;20106;-76
2024/02/17 08:37:27;;;;;;;9.40;8.18;;;12.30;77.40;;;;;;4956032;29;20612;-76
2024/02/17 08:39:53;;;;;;;7.78;6.97;;;12.20;77.40;;;;;;4939737;29;20118;-76
2024/02/17 08:42:19;;;;;;;7.88;6.82;;;12.10;77.50;;;;;;4957705;29;20106;-76
2024/02/17 08:44:46;;;;;;;9.05;8.13;;;12.20;77.90;;;;;;4939467;29;20481;-77
2024/02/17 08:47:12;;;;;;;11.30;9.30;;;12.20;77.90;;;;;;4940220;29;20031;-76
2024/02/17 08:49:38;;;;;;;13.15;9.93;;;12.20;77.20;;;;;;4940222;29;20035;-75
2024/02/17 08:52:07;;;;;;;9.70;8.80;;;12.10;77.20;;;;;;4940066;29;20163;-75
2024/02/17 08:54:32;;;;;;;9.48;8.27;;;12.10;77.40;;;;;;4939811;29;20118;-76
2024/02/17 08:56:58;;;;;;;9.60;8.60;;;12.10;77.30;;;;;;4940101;29;20167;-75
2024/02/17 08:59:23;;;;;;;11.45;10.25;;;12.10;78.20;;;;;;4939802;29;20027;-76
2024/02/17 09:01:51;;;;;;;14.15;12.38;;;12.10;76.90;;;;;;4939259;29;20503;-76
2024/02/17 09:04:16;;;;;;;15.48;13.80;;;12.20;76.70;;;;;;4923729;29;20183;-77
2024/02/17 09:06:44;;;;;;;17.15;15.45;;;12.20;76.20;;;;;;4956691;28;20341;-76
2024/02/17 09:09:10;;;;;;;19.98;17.85;;;12.20;75.90;;;;;;4939369;29;20027;-73
2024/02/17 09:11:35;;;;;;;21.23;19.00;;;12.10;75.40;;;;;;4939449;29;20114;-73
2024/02/17 09:14:03;;;;;;;26.90;23.30;;;12.00;76.20;;;;;;4939469;29;20057;-73
2024/02/17 09:16:29;;;;;;;28.40;25.02;;;11.90;75.60;;;;;;4939350;29;20043;-76
2024/02/17 09:18:55;;;;;;;27.73;24.73;;;11.80;75.90;;;;;;4938975;29;20369;-73
2024/02/17 09:21:20;;;;;;;33.80;29.52;;;11.80;76.30;;;;;;4939322;29;20027;-74
2024/02/17 09:23:46;;;;;;;28.35;25.00;;;11.70;77.10;;;;;;4939343;29;20532;-74
2024/02/17 09:26:11;;;;;;;20.63;17.08;;;11.60;77.90;;;;;;4939170;29;20433;-75
2024/02/17 09:28:37;;;;;;;16.92;15.23;;;11.40;78.40;;;;;;4939432;29;20027;-78
2024/02/17 09:31:03;;;;;;;18.50;15.27;;;11.40;78.50;;;;;;4955970;29;20023;-74
2024/02/17 09:33:29;;;;;;;16.58;14.88;;;11.40;78.80;;;;;;4939111;29;20027;-77
2024/02/17 09:35:56;;;;;;;16.88;13.50;;;11.40;79.10;;;;;;4956386;29;20552;-73
2024/02/17 09:38:22;;;;;;;15.73;13.35;;;11.50;79.20;;;;;;4939067;29;20027;-73
2024/02/17 09:40:51;;;;;;;21.10;14.45;;;11.50;79.40;;;;;;4938959;29;20498;-76
2024/02/17 09:43:16;;;;;;;16.23;12.73;;;11.60;79.40;;;;;;4937873;29;20031;-73
2024/02/17 09:45:42;;;;;;;13.50;10.82;;;11.70;79.10;;;;;;4938730;29;20039;-74
2024/02/17 09:48:10;;;;;;;14.65;11.90;;;11.80;78.90;;;;;;4938855;29;20524;-74
2024/02/17 09:50:37;;;;;;;16.95;13.43;;;11.90;78.70;;;;;;4938445;29;20023;-73
2024/02/17 09:53:05;;;;;;;15.73;12.65;;;12.00;78.20;;;;;;4938149;29;20023;-74
2024/02/17 09:55:30;;;;;;;15.15;13.65;;;12.10;78.00;;;;;;4938616;29;20031;-74
2024/02/17 09:57:57;;;;;;;15.65;13.95;;;12.10;77.60;;;;;;4938788;29;20027;-73
2024/02/17 10:00:23;;;;;;;13.60;12.25;;;12.10;77.50;;;;;;4938801;29;20027;-74
2024/02/17 10:02:51;;;;;;;12.60;11.30;;;12.10;77.10;;;;;;4938633;29;20114;-74
2024/02/17 10:05:20;;;;;;;14.25;12.75;;;12.00;76.80;;;;;;4938367;29;20033;-73
2024/02/17 10:07:50;;;;;;;14.52;13.02;;;12.00;76.20;;;;;;4938733;29;20023;-73
2024/02/17 10:10:18;;;;;;;13.88;11.70;;;11.90;76.30;;;;;;4938603;29;20059;-73
2024/02/17 10:12:52;;;;;;;16.02;12.45;;;11.80;76.80;;;;;;4938498;29;20125;-74
2024/02/17 10:15:19;;;;;;;18.25;13.73;;;11.60;77.20;;;;;;4940596;29;20035;-75
2024/02/17 10:17:45;;;;;;;15.07;11.02;;;11.60;77.60;;;;;;4959820;28;20098;-74
2024/02/17 10:20:11;;;;;;;18.98;13.82;;;11.60;78.00;;;;;;4977989;28;20109;-72
2024/02/17 10:22:38;;;;;;;17.92;13.15;;;11.70;77.70;;;;;;4977441;28;20101;-73
2024/02/17 10:25:05;;;;;;;16.42;14.70;;;11.60;77.50;;;;;;4977459;28;20484;-74
2024/02/17 10:27:32;;;;;;;14.70;13.20;;;11.70;77.20;;;;;;4974586;28;20230;-72
2024/02/17 10:30:11;;;;;;;15.45;13.95;;;11.60;77.80;;;;;;4957321;28;20026;-76
2024/02/17 10:32:37;;;;;;;15.07;13.52;;;11.70;78.20;;;;;;4957093;28;20030;-72
2024/02/17 10:35:05;;;;;;;16.70;12.73;;;11.70;78.10;;;;;;4974192;28;20027;-73
2024/02/17 10:37:32;;;;;;;17.27;13.18;;;11.80;77.50;;;;;;4974265;28;20023;-72
2024/02/17 10:40:05;;;;;;;14.85;13.40;;;11.70;77.30;;;;;;4956764;28;20078;-73
2024/02/17 10:42:32;;;;;;;16.27;14.57;;;11.70;77.70;;;;;;4974210;28;20039;-73
2024/02/17 10:45:01;;;;;;;18.02;16.15;;;11.60;77.60;;;;;;4974192;28;20041;-73
2024/02/17 10:47:32;;;;;;;13.18;10.00;;;11.60;77.50;;;;;;4974183;28;20077;-77
2024/02/17 10:50:15;;;;;;;15.23;13.13;;;11.70;80.10;;;;;;4974186;28;20065;-72
2024/02/17 10:52:54;;;;;;;40.13;15.18;;;12.00;79.70;;;;;;4974065;28;20029;-73
2024/02/17 10:55:27;;;;;;;16.52;13.82;;;12.10;77.20;;;;;;4974010;28;20027;-74
2024/02/17 10:57:55;;;;;;;14.15;11.43;;;12.30;76.70;;;;;;4974202;28;20065;-74
2024/02/17 11:00:22;;;;;;;14.48;11.52;;;12.30;76.80;;;;;;4973814;28;20172;-75
2024/02/17 11:02:49;;;;;;;14.90;13.40;;;12.50;75.90;;;;;;4973802;28;20038;-73
2024/02/17 11:05:18;;;;;;;13.60;11.27;;;12.60;74.60;;;;;;4973739;28;20097;-74
2024/02/17 11:07:45;;;;;;;14.95;12.02;;;12.60;74.70;;;;;;4973609;28;20061;-76
2024/02/17 11:10:12;;;;;;;12.15;10.93;;;12.60;74.60;;;;;;4973415;28;20022;-72
2024/02/17 11:12:38;;;;;;;12.50;11.13;;;12.70;74.10;;;;;;4973518;28;20110;-73
2024/02/17 11:15:11;;;;;;;12.43;11.00;;;12.90;73.20;;;;;;4973484;28;20259;-72
2024/02/17 11:17:50;;;;;;;12.15;10.07;;;13.00;72.40;;;;;;4974101;28;20125;-74
2024/02/17 11:20:16;;;;;;;11.32;10.23;;;13.30;71.40;;;;;;4973608;28;20118;-73
2024/02/17 11:22:45;;;;;;;13.32;9.77;;;13.50;70.40;;;;;;4972542;28;20027;-72
2024/02/17 11:25:11;;;;;;;18.65;9.13;;;13.70;69.30;;;;;;4973726;28;20553;-72
2024/02/17 11:27:37;;;;;;;17.02;10.15;;;13.80;68.80;;;;;;4973666;28;20097;-74
2024/02/17 11:30:05;;;;;;;13.52;9.48;;;13.90;68.20;;;;;;4973686;28;20027;-72
2024/02/17 11:32:31;;;;;;;10.52;8.23;;;14.00;67.40;;;;;;4973607;28;20026;-74
2024/02/17 11:34:59;;;;;;;13.50;8.23;;;14.10;66.80;;;;;;4973530;28;20352;-72
2024/02/17 11:37:27;;;;;;;9.45;8.07;;;14.20;66.40;;;;;;4973609;28;20563;-73
2024/02/17 11:39:53;;;;;;;8.95;7.82;;;14.20;66.10;;;;;;4973643;28;20027;-73
2024/02/17 11:42:20;;;;;;;8.70;7.63;;;14.50;65.60;;;;;;4973541;28;20023;-74
2024/02/17 11:44:46;;;;;;;7.95;7.07;;;15.10;64.10;;;;;;4956483;28;20062;-76
2024/02/17 11:47:13;;;;;;;8.90;7.28;;;15.90;62.00;;;;;;4956365;28;20054;-75
2024/02/17 11:49:38;;;;;;;11.65;7.07;;;16.70;58.90;;;;;;4956389;28;20451;-75
2024/02/17 11:52:04;;;;;;;7.53;6.82;;;17.40;55.30;;;;;;4956571;28;20018;-74
2024/02/17 11:54:31;;;;;;;6.75;6.07;;;18.00;52.40;;;;;;4973628;28;20488;-74
2024/02/17 11:56:56;;;;;;;5.50;5.00;;;18.40;51.10;;;;;;4973343;28;20023;-72
2024/02/17 11:59:25;;;;;;;6.30;5.25;;;18.90;48.50;;;;;;4973589;28;20314;-73
2024/02/17 12:01:51;;;;;;;4.80;4.40;;;19.00;46.30;;;;;;4973415;28;20026;-72
2024/02/17 12:04:17;;;;;;;4.63;3.63;;;18.80;46.90;;;;;;4973309;28;20027;-71
2024/02/17 12:06:42;;;;;;;5.78;4.72;;;18.60;46.50;;;;;;4973845;28;20101;-72
2024/02/17 12:09:08;;;;;;;8.02;4.95;;;18.20;45.80;;;;;;4977202;28;20034;-72
2024/02/17 12:11:34;;;;;;;4.97;4.05;;;17.60;46.40;;;;;;4977035;28;20023;-72
2024/02/17 12:14:01;;;;;;;5.38;4.80;;;17.10;48.50;;;;;;4977151;28;20030;-73
2024/02/17 12:16:27;;;;;;;4.90;4.47;;;16.70;50.70;;;;;;4977103;28;20050;-74
2024/02/17 12:18:55;;;;;;;4.55;4.03;;;16.30;51.70;;;;;;4977295;28;20030;-74
2024/02/17 12:21:21;;;;;;;4.55;4.15;;;16.10;52.30;;;;;;4976314;28;20113;-73
2024/02/17 12:23:48;;;;;;;4.55;4.15;;;15.80;52.00;;;;;;4976367;28;20039;-73
2024/02/17 12:26:14;;;;;;;4.70;4.18;;;15.50;52.10;;;;;;4977812;28;20019;-73
2024/02/17 12:28:43;;;;;;;5.60;5.05;;;15.30;53.00;;;;;;4959312;28;20023;-73
2024/02/17 12:31:11;;;;;;;4.80;4.32;;;15.20;53.60;;;;;;4975354;28;20491;-72
2024/02/17 12:33:50;;;;;;;5.70;5.10;;;15.10;54.40;;;;;;4976414;28;20037;-73
2024/02/17 12:36:21;;;;;;;5.95;4.22;;;15.00;54.90;;;;;;4976561;28;20026;-72
2024/02/17 12:38:47;;;;;;;5.85;5.35;;;14.90;54.90;;;;;;4977180;28;20089;-73
2024/02/17 12:41:16;;;;;;;5.75;5.18;;;14.90;54.70;;;;;;4959096;28;20427;-73
2024/02/17 12:43:48;;;;;;;5.75;5.10;;;14.90;55.50;;;;;;4976469;28;20085;-73
2024/02/17 12:46:26;;;;;;;6.53;5.93;;;15.00;55.40;;;;;;4959182;28;20110;-74